Autumn — V7QA6 — position and weather

sailwx.info

Track history (hours):
 
Tides and Currents Weather Stations Pressure Air Temp Water Temp Dewpoint Dewpoint Depression Visibility Wind Speed Wind Dir Waves Ship Positions

Autumn

Last reported at 2015-Mar-31 12:26 UTC. Time now 2015-Mar-31 16:58 UTC.
Position N 50°22' W 000°57'.

Length 129 m; draft 8.6 m.

Type: Tanker. MMSI: 538003323.

Date/timePositionNaut miles runAvg speedWind from/ knotsBaromVisibWave heightAir tempDewpointWater temp
2015-Mar-31 12:26N 50°22' W 000°57'1511.9
2015-Mar-31 11:09N 50°27' W 000°34'811.5
2015-Mar-31 10:30N 50°30' W 000°23'14 7.0
2015-Mar-31 08:29N 50°32' W 000°01'6 6.7
2015-Mar-31 07:33N 50°33' E 000°09'5 4.3
2015-Mar-31 06:25N 50°33' E 000°16'5 5.2
2015-Mar-31 05:33N 50°37' E 000°21'5 4.7
2015-Mar-31 04:33N 50°38' E 000°28'5 4.8
2015-Mar-31 03:33N 50°38' E 000°36'5 4.9
2015-Mar-31 02:33N 50°40' E 000°43'6 5.5
2015-Mar-31 01:33N 50°44' E 000°49'7 6.9
2015-Mar-31 00:33N 50°49' E 000°58'8 7.9
2015-Mar-30 23:31N 50°54' E 001°07'8 8.3
2015-Mar-30 22:33N 50°59' E 001°17'8 8.4
2015-Mar-30 21:33N 51°05' E 001°27'9 9.4
2015-Mar-30 20:33N 51°10' E 001°39'1110.7
2015-Mar-30 19:34N 51°19' E 001°49'1212.4
2015-Mar-30 18:33N 51°29' E 002°00'1413.5
2015-Mar-30 17:33N 51°39' E 002°15'5711.2
2015-Mar-30 12:26N 52°04' E 003°39'7 8.1
2015-Mar-30 11:33N 52°03' E 003°50'6 6.2
2015-Mar-30 10:33N 52°01' E 003°59'5 4.6
2015-Mar-30 09:26N 51°57' E 004°05'0 0.0
2015-Mar-30 08:32N 51°57' E 004°05'0 0.0
2015-Mar-30 07:32N 51°57' E 004°05'0 0.0
2015-Mar-30 06:29N 51°57' E 004°05'0 0.0
2015-Mar-30 05:32N 51°57' E 004°05'0 0.0
2015-Mar-30 04:29N 51°57' E 004°05'0 0.0
2015-Mar-30 03:29N 51°57' E 004°05'0 0.0
2015-Mar-30 02:32N 51°57' E 004°05'0 0.0
2015-Mar-30 01:32N 51°57' E 004°05'0 0.0
2015-Mar-30 00:32N 51°57' E 004°05'0 0.0
2015-Mar-29 23:32N 51°57' E 004°05'0 0.0
2015-Mar-29 22:32N 51°57' E 004°05'0 0.0
2015-Mar-29 21:32N 51°57' E 004°05'0 0.0
2015-Mar-29 20:32N 51°57' E 004°05'0 0.0
2015-Mar-29 19:32N 51°57' E 004°05'0 0.0
2015-Mar-29 18:29N 51°57' E 004°05'0 0.0
2015-Mar-29 17:32N 51°57' E 004°05'0 0.0
2015-Mar-29 16:32N 51°57' E 004°05'0 0.0
2015-Mar-29 15:32N 51°57' E 004°05'0 0.0
2015-Mar-29 14:29N 51°57' E 004°05'0 0.0
2015-Mar-29 13:32N 51°57' E 004°05'0 0.0
2015-Mar-29 12:32N 51°57' E 004°05'0 0.0
2015-Mar-29 11:32N 51°57' E 004°05'0 0.0
2015-Mar-29 10:32N 51°57' E 004°05'0 0.0
2015-Mar-29 09:32N 51°57' E 004°05'0 0.0
2015-Mar-29 08:32N 51°57' E 004°05'0 0.0
2015-Mar-29 07:26N 51°57' E 004°05'0 0.0
2015-Mar-29 06:32N 51°57' E 004°05'0 0.0
2015-Mar-29 05:32N 51°57' E 004°05'0 0.0
2015-Mar-29 04:32N 51°57' E 004°05'0 0.3
2015-Mar-29 03:33N 51°57' E 004°05'10 9.8
2015-Mar-29 02:33N 51°60' E 003°50'10 9.4
2015-Mar-29 01:33N 51°56' E 003°36'3 3.2
2015-Mar-29 00:31N 51°54' E 003°31'0 0.0
2015-Mar-28 23:25N 51°54' E 003°31'0 0.0
2015-Mar-28 22:13N 51°54' E 003°31'0 0.0
2015-Mar-28 21:31N 51°54' E 003°31'0 0.0
2015-Mar-28 20:19N 51°54' E 003°31'0 0.0
2015-Mar-28 18:31N 51°54' E 003°31'0 0.0
2015-Mar-28 17:19N 51°54' E 003°31'0 0.0
2015-Mar-28 16:16N 51°54' E 003°31'0 0.0
2015-Mar-28 15:31N 51°54' E 003°31'0 0.0
2015-Mar-28 12:31N 51°54' E 003°31'0 0.0
2015-Mar-28 11:13N 51°54' E 003°31'0 0.0
2015-Mar-28 10:10N 51°54' E 003°31'0 0.0
2015-Mar-28 08:31N 51°54' E 003°31'0 0.0
2015-Mar-28 06:28N 51°54' E 003°31'0 0.0
2015-Mar-28 05:22N 51°54' E 003°31'0 0.1
2015-Mar-28 04:25N 51°54' E 003°31'0 0.0
2015-Mar-28 03:28N 51°54' E 003°31'0 0.0
2015-Mar-28 02:25N 51°54' E 003°31'0 0.0
2015-Mar-28 01:22N 51°54' E 003°31'0 0.1
2015-Mar-28 00:31N 51°54' E 003°31'0 0.1
2015-Mar-27 23:31N 51°54' E 003°31'0 0.0
2015-Mar-27 22:25N 51°54' E 003°31'0 0.0
2015-Mar-27 21:28N 51°54' E 003°31'0 0.0
2015-Mar-27 20:31N 51°54' E 003°31'0 0.0
2015-Mar-27 19:31N 51°54' E 003°31'1 0.9
2015-Mar-27 18:33N 51°54' E 003°30'1313.1
2015-Mar-27 17:31N 51°53' E 003°08'3012.6
2015-Mar-27 15:09N 51°48' E 002°20'711.8
2015-Mar-27 14:33N 51°44' E 002°11'1111.5
2015-Mar-27 13:33N 51°38' E 001°56'1212.1
2015-Mar-27 12:33N 51°33' E 001°38'5 4.7
2015-Mar-27 11:33N 51°32' E 001°30'0 0.0
2015-Mar-27 10:33N 51°32' E 001°30'0 0.0
2015-Mar-27 09:33N 51°32' E 001°30'0 0.0
2015-Mar-27 08:33N 51°32' E 001°30'0 0.0
2015-Mar-27 07:33N 51°32' E 001°30'0 0.0
2015-Mar-27 06:33N 51°32' E 001°30'0 0.0
2015-Mar-27 05:33N 51°32' E 001°30'0 0.0
2015-Mar-27 04:33N 51°32' E 001°30'0 0.1
2015-Mar-27 03:33N 51°32' E 001°30'0 0.0
2015-Mar-27 02:33N 51°32' E 001°30'0 0.0
2015-Mar-27 01:33N 51°32' E 001°30'0 0.0
2015-Mar-27 00:33N 51°32' E 001°30'0 0.1
2015-Mar-26 23:33N 51°32' E 001°30'1 0.9
2015-Mar-26 22:33N 51°31' E 001°31'1010.1
2015-Mar-26 21:34N 51°29' E 001°15'1312.5
2015-Mar-26 20:33N 51°29' E 000°55'1515.4
2015-Mar-26 19:33N 51°30' E 000°30'7 7.4
2015-Mar-26 18:33N 51°28' E 000°18'0 0.0
2015-Mar-26 17:33N 51°28' E 000°18'0 0.0
2015-Mar-26 16:34N 51°28' E 000°18'0 0.0
2015-Mar-26 15:34N 51°28' E 000°18'0 0.0
2015-Mar-26 14:34N 51°28' E 000°18'0 0.0
2015-Mar-26 13:34N 51°28' E 000°18'0 0.0
2015-Mar-26 12:32N 51°28' E 000°18'0 0.0
2015-Mar-26 11:34N 51°28' E 000°18'0 0.0
2015-Mar-26 10:34N 51°28' E 000°18'0 0.0
2015-Mar-26 09:33N 51°28' E 000°18'0 0.0
2015-Mar-26 08:32N 51°28' E 000°18'0 0.0
2015-Mar-26 07:34N 51°28' E 000°18'0 0.0
2015-Mar-26 06:34N 51°28' E 000°18'0 0.0
2015-Mar-26 05:34N 51°28' E 000°18'0 0.0
2015-Mar-26 04:32N 51°28' E 000°18'0 0.0
2015-Mar-26 03:33N 51°28' E 000°18'0 0.0
2015-Mar-26 02:32N 51°28' E 000°18'0 0.0
2015-Mar-26 01:32N 51°28' E 000°18'2 1.6
2015-Mar-26 00:34N 51°27' E 000°20'8 7.9
2015-Mar-25 23:33N 51°30' E 000°32'1211.5
2015-Mar-25 22:34N 51°29' E 000°50'1110.6
2015-Mar-25 21:33N 51°29' E 001°07'1110.8
2015-Mar-25 20:33N 51°28' E 001°24'5 5.3
2015-Mar-25 19:33N 51°27' E 001°33'1111.1
2015-Mar-25 18:33N 51°32' E 001°49'1111.4
2015-Mar-25 17:33N 51°36' E 002°06'5212.0
2015-Mar-25 13:14N 52°02' E 003°18'1213.8
2015-Mar-25 12:23N 52°03' E 003°37'1012.3
2015-Mar-25 11:33N 52°02' E 003°54'1313.0
2015-Mar-25 10:33N 51°56' E 004°13'6 6.1
2015-Mar-25 09:33N 51°53' E 004°22'0 0.0
2015-Mar-25 08:33N 51°53' E 004°22'0 0.0
2015-Mar-25 07:33N 51°53' E 004°22'0 0.0
2015-Mar-25 06:30N 51°53' E 004°22'0 0.0
2015-Mar-25 05:30N 51°53' E 004°22'0 0.0
2015-Mar-25 04:30N 51°53' E 004°22'0 0.0
2015-Mar-25 03:30N 51°53' E 004°22'0 0.0
2015-Mar-25 02:33N 51°53' E 004°22'0 0.0
2015-Mar-25 01:30N 51°53' E 004°22'0 0.0
2015-Mar-25 00:33N 51°53' E 004°22'0 0.0
2015-Mar-24 23:30N 51°53' E 004°22'0 0.0
2015-Mar-24 22:30N 51°53' E 004°22'0 0.0
2015-Mar-24 21:33N 51°53' E 004°22'0 0.0
2015-Mar-24 20:33N 51°53' E 004°22'0 0.0
2015-Mar-24 19:30N 51°53' E 004°22'0 0.0
2015-Mar-24 18:33N 51°53' E 004°22'0 0.0
2015-Mar-24 17:24N 51°53' E 004°22'0 0.0
2015-Mar-24 16:33N 51°53' E 004°22'0 0.0
2015-Mar-24 15:33N 51°53' E 004°22'0 0.0
2015-Mar-24 14:30N 51°53' E 004°22'0 0.0
2015-Mar-24 13:30N 51°53' E 004°22'0 0.0
2015-Mar-24 12:30N 51°53' E 004°22'0 0.0
2015-Mar-24 11:30N 51°53' E 004°22'0 0.0
2015-Mar-24 10:33N 51°53' E 004°22'0 0.0
2015-Mar-24 09:30N 51°53' E 004°22'0 0.0
2015-Mar-24 08:33N 51°53' E 004°22'0 0.0
2015-Mar-24 07:33N 51°53' E 004°22'1 0.8
2015-Mar-24 06:33N 51°54' E 004°21'9 8.8
2015-Mar-24 05:33N 51°58' E 004°08'1212.4
2015-Mar-24 04:33N 52°01' E 003°49'1111.1
2015-Mar-24 03:32N 52°12' E 003°46'1212.7
2015-Mar-24 02:33N 52°24' E 003°50'1111.1
2015-Mar-24 01:33N 52°31' E 004°04'1413.6
2015-Mar-24 00:33N 52°29' E 004°26'7 7.1
2015-Mar-23 23:33N 52°28' E 004°38'5 5.2
2015-Mar-23 22:32N 52°25' E 004°45'0 0.0
2015-Mar-23 21:26N 52°25' E 004°45'0 0.0
2015-Mar-23 20:32N 52°25' E 004°45'0 0.0
2015-Mar-23 19:29N 52°25' E 004°45'0 0.0
2015-Mar-23 18:32N 52°25' E 004°45'0 0.0
2015-Mar-23 17:32N 52°25' E 004°45'0 0.0
2015-Mar-23 16:20N 52°25' E 004°45'0 0.0
2015-Mar-23 15:26N 52°25' E 004°45'0 0.0
2015-Mar-23 14:29N 52°25' E 004°45'0 0.0
2015-Mar-23 13:29N 52°25' E 004°45'0 0.0
2015-Mar-23 12:32N 52°25' E 004°45'0 0.0
2015-Mar-23 11:32N 52°25' E 004°45'0 0.0
2015-Mar-23 10:32N 52°25' E 004°45'0 0.0
2015-Mar-23 09:29N 52°25' E 004°45'0 0.0
2015-Mar-23 08:29N 52°25' E 004°45'0 0.0
2015-Mar-23 07:26N 52°25' E 004°45'0 0.0
2015-Mar-23 06:20N 52°25' E 004°45'0 0.0
2015-Mar-23 05:29N 52°25' E 004°45'0 0.0
2015-Mar-23 04:26N 52°25' E 004°45'0 0.0
2015-Mar-23 03:29N 52°25' E 004°45'0 0.0
2015-Mar-23 02:29N 52°25' E 004°45'0 0.0
2015-Mar-23 01:26N 52°25' E 004°45'0 0.0
2015-Mar-23 00:32N 52°25' E 004°45'0 0.0
2015-Mar-22 23:26N 52°25' E 004°45'0 0.0
2015-Mar-22 22:32N 52°25' E 004°45'0 0.0
2015-Mar-22 21:32N 52°25' E 004°45'0 0.0
2015-Mar-22 20:32N 52°25' E 004°45'0 0.0
2015-Mar-22 19:32N 52°25' E 004°45'0 0.0
2015-Mar-22 18:26N 52°25' E 004°45'0 0.0
2015-Mar-22 17:32N 52°25' E 004°45'0 0.0
2015-Mar-22 16:32N 52°25' E 004°45'0 0.0
2015-Mar-22 15:26N 52°25' E 004°45'0 0.0
2015-Mar-22 14:32N 52°25' E 004°45'0 0.0
2015-Mar-22 13:29N 52°25' E 004°45'0 0.0
2015-Mar-22 12:29N 52°25' E 004°45'0 0.0
2015-Mar-22 11:32N 52°25' E 004°45'0 0.0
2015-Mar-22 10:32N 52°25' E 004°45'0 0.0
2015-Mar-22 09:29N 52°25' E 004°45'0 0.0
2015-Mar-22 08:32N 52°25' E 004°45'0 0.4
2015-Mar-22 07:34N 52°25' E 004°45'6 5.8
2015-Mar-22 06:34N 52°28' E 004°37'8 7.7
2015-Mar-22 05:33N 52°28' E 004°24'1010.4
2015-Mar-22 04:33N 52°32' E 004°08'  
Track history (hours):
 
Tides and Currents Weather Stations Pressure Air Temp Water Temp Dewpoint Dewpoint Depression Visibility Wind Speed Wind Dir Waves Ship Positions

Autumn

Last reported at 2015-Mar-31 12:26 UTC. Time now 2015-Mar-31 16:58 UTC.
Position N 50°22' W 000°57'.

Length 129 m; draft 8.6 m.

Type: Tanker. MMSI: 538003323.

Date/timePositionNaut miles runAvg speedWind from/ knotsBaromVisibWave heightAir tempDewpointWater temp
2015-Mar-31 12:26N 50°22' W 000°57'1511.9
2015-Mar-31 11:09N 50°27' W 000°34'811.5
2015-Mar-31 10:30N 50°30' W 000°23'14 7.0
2015-Mar-31 08:29N 50°32' W 000°01'6 6.7
2015-Mar-31 07:33N 50°33' E 000°09'5 4.3
2015-Mar-31 06:25N 50°33' E 000°16'5 5.2
2015-Mar-31 05:33N 50°37' E 000°21'5 4.7
2015-Mar-31 04:33N 50°38' E 000°28'5 4.8
2015-Mar-31 03:33N 50°38' E 000°36'5 4.9
2015-Mar-31 02:33N 50°40' E 000°43'6 5.5
2015-Mar-31 01:33N 50°44' E 000°49'7 6.9
2015-Mar-31 00:33N 50°49' E 000°58'8 7.9
2015-Mar-30 23:31N 50°54' E 001°07'8 8.3
2015-Mar-30 22:33N 50°59' E 001°17'8 8.4
2015-Mar-30 21:33N 51°05' E 001°27'9 9.4
2015-Mar-30 20:33N 51°10' E 001°39'1110.7
2015-Mar-30 19:34N 51°19' E 001°49'1212.4
2015-Mar-30 18:33N 51°29' E 002°00'1413.5
2015-Mar-30 17:33N 51°39' E 002°15'5711.2
2015-Mar-30 12:26N 52°04' E 003°39'7 8.1
2015-Mar-30 11:33N 52°03' E 003°50'6 6.2
2015-Mar-30 10:33N 52°01' E 003°59'5 4.6
2015-Mar-30 09:26N 51°57' E 004°05'0 0.0
2015-Mar-30 08:32N 51°57' E 004°05'0 0.0
2015-Mar-30 07:32N 51°57' E 004°05'0 0.0
2015-Mar-30 06:29N 51°57' E 004°05'0 0.0
2015-Mar-30 05:32N 51°57' E 004°05'0 0.0
2015-Mar-30 04:29N 51°57' E 004°05'0 0.0
2015-Mar-30 03:29N 51°57' E 004°05'0 0.0
2015-Mar-30 02:32N 51°57' E 004°05'0 0.0
2015-Mar-30 01:32N 51°57' E 004°05'0 0.0
2015-Mar-30 00:32N 51°57' E 004°05'0 0.0
2015-Mar-29 23:32N 51°57' E 004°05'0 0.0
2015-Mar-29 22:32N 51°57' E 004°05'0 0.0
2015-Mar-29 21:32N 51°57' E 004°05'0 0.0
2015-Mar-29 20:32N 51°57' E 004°05'0 0.0
2015-Mar-29 19:32N 51°57' E 004°05'0 0.0
2015-Mar-29 18:29N 51°57' E 004°05'0 0.0
2015-Mar-29 17:32N 51°57' E 004°05'0 0.0
2015-Mar-29 16:32N 51°57' E 004°05'0 0.0
2015-Mar-29 15:32N 51°57' E 004°05'0 0.0
2015-Mar-29 14:29N 51°57' E 004°05'0 0.0
2015-Mar-29 13:32N 51°57' E 004°05'0 0.0
2015-Mar-29 12:32N 51°57' E 004°05'0 0.0
2015-Mar-29 11:32N 51°57' E 004°05'0 0.0
2015-Mar-29 10:32N 51°57' E 004°05'0 0.0
2015-Mar-29 09:32N 51°57' E 004°05'0 0.0
2015-Mar-29 08:32N 51°57' E 004°05'0 0.0
2015-Mar-29 07:26N 51°57' E 004°05'0 0.0
2015-Mar-29 06:32N 51°57' E 004°05'0 0.0
2015-Mar-29 05:32N 51°57' E 004°05'0 0.0
2015-Mar-29 04:32N 51°57' E 004°05'0 0.3
2015-Mar-29 03:33N 51°57' E 004°05'10 9.8
2015-Mar-29 02:33N 51°60' E 003°50'10 9.4
2015-Mar-29 01:33N 51°56' E 003°36'3 3.2
2015-Mar-29 00:31N 51°54' E 003°31'0 0.0
2015-Mar-28 23:25N 51°54' E 003°31'0 0.0
2015-Mar-28 22:13N 51°54' E 003°31'0 0.0
2015-Mar-28 21:31N 51°54' E 003°31'0 0.0
2015-Mar-28 20:19N 51°54' E 003°31'0 0.0
2015-Mar-28 18:31N 51°54' E 003°31'0 0.0
2015-Mar-28 17:19N 51°54' E 003°31'0 0.0
2015-Mar-28 16:16N 51°54' E 003°31'0 0.0
2015-Mar-28 15:31N 51°54' E 003°31'0 0.0
2015-Mar-28 12:31N 51°54' E 003°31'0 0.0
2015-Mar-28 11:13N 51°54' E 003°31'0 0.0
2015-Mar-28 10:10N 51°54' E 003°31'0 0.0
2015-Mar-28 08:31N 51°54' E 003°31'0 0.0
2015-Mar-28 06:28N 51°54' E 003°31'0 0.0
2015-Mar-28 05:22N 51°54' E 003°31'0 0.1
2015-Mar-28 04:25N 51°54' E 003°31'0 0.0
2015-Mar-28 03:28N 51°54' E 003°31'0 0.0
2015-Mar-28 02:25N 51°54' E 003°31'0 0.0
2015-Mar-28 01:22N 51°54' E 003°31'0 0.1
2015-Mar-28 00:31N 51°54' E 003°31'0 0.1
2015-Mar-27 23:31N 51°54' E 003°31'0 0.0
2015-Mar-27 22:25N 51°54' E 003°31'0 0.0
2015-Mar-27 21:28N 51°54' E 003°31'0 0.0
2015-Mar-27 20:31N 51°54' E 003°31'0 0.0
2015-Mar-27 19:31N 51°54' E 003°31'1 0.9
2015-Mar-27 18:33N 51°54' E 003°30'1313.1
2015-Mar-27 17:31N 51°53' E 003°08'3012.6
2015-Mar-27 15:09N 51°48' E 002°20'711.8
2015-Mar-27 14:33N 51°44' E 002°11'1111.5
2015-Mar-27 13:33N 51°38' E 001°56'1212.1
2015-Mar-27 12:33N 51°33' E 001°38'5 4.7
2015-Mar-27 11:33N 51°32' E 001°30'0 0.0
2015-Mar-27 10:33N 51°32' E 001°30'0 0.0
2015-Mar-27 09:33N 51°32' E 001°30'0 0.0
2015-Mar-27 08:33N 51°32' E 001°30'0 0.0
2015-Mar-27 07:33N 51°32' E 001°30'0 0.0
2015-Mar-27 06:33N 51°32' E 001°30'0 0.0
2015-Mar-27 05:33N 51°32' E 001°30'0 0.0
2015-Mar-27 04:33N 51°32' E 001°30'0 0.1
2015-Mar-27 03:33N 51°32' E 001°30'0 0.0
2015-Mar-27 02:33N 51°32' E 001°30'0 0.0
2015-Mar-27 01:33N 51°32' E 001°30'0 0.0
2015-Mar-27 00:33N 51°32' E 001°30'0 0.1
2015-Mar-26 23:33N 51°32' E 001°30'1 0.9
2015-Mar-26 22:33N 51°31' E 001°31'1010.1
2015-Mar-26 21:34N 51°29' E 001°15'1312.5
2015-Mar-26 20:33N 51°29' E 000°55'1515.4
2015-Mar-26 19:33N 51°30' E 000°30'7 7.4
2015-Mar-26 18:33N 51°28' E 000°18'0 0.0
2015-Mar-26 17:33N 51°28' E 000°18'0 0.0
2015-Mar-26 16:34N 51°28' E 000°18'0 0.0
2015-Mar-26 15:34N 51°28' E 000°18'0 0.0
2015-Mar-26 14:34N 51°28' E 000°18'0 0.0
2015-Mar-26 13:34N 51°28' E 000°18'0 0.0
2015-Mar-26 12:32N 51°28' E 000°18'0 0.0
2015-Mar-26 11:34N 51°28' E 000°18'0 0.0
2015-Mar-26 10:34N 51°28' E 000°18'0 0.0
2015-Mar-26 09:33N 51°28' E 000°18'0 0.0
2015-Mar-26 08:32N 51°28' E 000°18'0 0.0
2015-Mar-26 07:34N 51°28' E 000°18'0 0.0
2015-Mar-26 06:34N 51°28' E 000°18'0 0.0
2015-Mar-26 05:34N 51°28' E 000°18'0 0.0
2015-Mar-26 04:32N 51°28' E 000°18'0 0.0
2015-Mar-26 03:33N 51°28' E 000°18'0 0.0
2015-Mar-26 02:32N 51°28' E 000°18'0 0.0
2015-Mar-26 01:32N 51°28' E 000°18'2 1.6
2015-Mar-26 00:34N 51°27' E 000°20'8 7.9
2015-Mar-25 23:33N 51°30' E 000°32'1211.5
2015-Mar-25 22:34N 51°29' E 000°50'1110.6
2015-Mar-25 21:33N 51°29' E 001°07'1110.8
2015-Mar-25 20:33N 51°28' E 001°24'5 5.3
2015-Mar-25 19:33N 51°27' E 001°33'1111.1
2015-Mar-25 18:33N 51°32' E 001°49'1111.4
2015-Mar-25 17:33N 51°36' E 002°06'5212.0
2015-Mar-25 13:14N 52°02' E 003°18'1213.8
2015-Mar-25 12:23N 52°03' E 003°37'1012.3
2015-Mar-25 11:33N 52°02' E 003°54'1313.0
2015-Mar-25 10:33N 51°56' E 004°13'6 6.1
2015-Mar-25 09:33N 51°53' E 004°22'0 0.0
2015-Mar-25 08:33N 51°53' E 004°22'0 0.0
2015-Mar-25 07:33N 51°53' E 004°22'0 0.0
2015-Mar-25 06:30N 51°53' E 004°22'0 0.0
2015-Mar-25 05:30N 51°53' E 004°22'0 0.0
2015-Mar-25 04:30N 51°53' E 004°22'0 0.0
2015-Mar-25 03:30N 51°53' E 004°22'0 0.0
2015-Mar-25 02:33N 51°53' E 004°22'0 0.0
2015-Mar-25 01:30N 51°53' E 004°22'0 0.0
2015-Mar-25 00:33N 51°53' E 004°22'0 0.0
2015-Mar-24 23:30N 51°53' E 004°22'0 0.0
2015-Mar-24 22:30N 51°53' E 004°22'0 0.0
2015-Mar-24 21:33N 51°53' E 004°22'0 0.0
2015-Mar-24 20:33N 51°53' E 004°22'0 0.0
2015-Mar-24 19:30N 51°53' E 004°22'0 0.0
2015-Mar-24 18:33N 51°53' E 004°22'0 0.0
2015-Mar-24 17:24N 51°53' E 004°22'0 0.0
2015-Mar-24 16:33N 51°53' E 004°22'0 0.0
2015-Mar-24 15:33N 51°53' E 004°22'0 0.0
2015-Mar-24 14:30N 51°53' E 004°22'0 0.0
2015-Mar-24 13:30N 51°53' E 004°22'0 0.0
2015-Mar-24 12:30N 51°53' E 004°22'0 0.0
2015-Mar-24 11:30N 51°53' E 004°22'0 0.0
2015-Mar-24 10:33N 51°53' E 004°22'0 0.0
2015-Mar-24 09:30N 51°53' E 004°22'0 0.0
2015-Mar-24 08:33N 51°53' E 004°22'0 0.0
2015-Mar-24 07:33N 51°53' E 004°22'1 0.8
2015-Mar-24 06:33N 51°54' E 004°21'9 8.8
2015-Mar-24 05:33N 51°58' E 004°08'1212.4
2015-Mar-24 04:33N 52°01' E 003°49'1111.1
2015-Mar-24 03:32N 52°12' E 003°46'1212.7
2015-Mar-24 02:33N 52°24' E 003°50'1111.1
2015-Mar-24 01:33N 52°31' E 004°04'1413.6
2015-Mar-24 00:33N 52°29' E 004°26'7 7.1
2015-Mar-23 23:33N 52°28' E 004°38'5 5.2
2015-Mar-23 22:32N 52°25' E 004°45'0 0.0
2015-Mar-23 21:26N 52°25' E 004°45'0 0.0
2015-Mar-23 20:32N 52°25' E 004°45'0 0.0
2015-Mar-23 19:29N 52°25' E 004°45'0 0.0
2015-Mar-23 18:32N 52°25' E 004°45'0 0.0
2015-Mar-23 17:32N 52°25' E 004°45'0 0.0
2015-Mar-23 16:20N 52°25' E 004°45'0 0.0
2015-Mar-23 15:26N 52°25' E 004°45'0 0.0
2015-Mar-23 14:29N 52°25' E 004°45'0 0.0
2015-Mar-23 13:29N 52°25' E 004°45'0 0.0
2015-Mar-23 12:32N 52°25' E 004°45'0 0.0
2015-Mar-23 11:32N 52°25' E 004°45'0 0.0
2015-Mar-23 10:32N 52°25' E 004°45'0 0.0
2015-Mar-23 09:29N 52°25' E 004°45'0 0.0
2015-Mar-23 08:29N 52°25' E 004°45'0 0.0
2015-Mar-23 07:26N 52°25' E 004°45'0 0.0
2015-Mar-23 06:20N 52°25' E 004°45'0 0.0
2015-Mar-23 05:29N 52°25' E 004°45'0 0.0
2015-Mar-23 04:26N 52°25' E 004°45'0 0.0
2015-Mar-23 03:29N 52°25' E 004°45'0 0.0
2015-Mar-23 02:29N 52°25' E 004°45'0 0.0
2015-Mar-23 01:26N 52°25' E 004°45'0 0.0
2015-Mar-23 00:32N 52°25' E 004°45'0 0.0
2015-Mar-22 23:26N 52°25' E 004°45'0 0.0
2015-Mar-22 22:32N 52°25' E 004°45'0 0.0
2015-Mar-22 21:32N 52°25' E 004°45'0 0.0
2015-Mar-22 20:32N 52°25' E 004°45'0 0.0
2015-Mar-22 19:32N 52°25' E 004°45'0 0.0
2015-Mar-22 18:26N 52°25' E 004°45'0 0.0
2015-Mar-22 17:32N 52°25' E 004°45'0 0.0
2015-Mar-22 16:32N 52°25' E 004°45'0 0.0
2015-Mar-22 15:26N 52°25' E 004°45'0 0.0
2015-Mar-22 14:32N 52°25' E 004°45'0 0.0
2015-Mar-22 13:29N 52°25' E 004°45'0 0.0
2015-Mar-22 12:29N 52°25' E 004°45'0 0.0
2015-Mar-22 11:32N 52°25' E 004°45'0 0.0
2015-Mar-22 10:32N 52°25' E 004°45'0 0.0
2015-Mar-22 09:29N 52°25' E 004°45'0 0.0
2015-Mar-22 08:32N 52°25' E 004°45'0 0.4
2015-Mar-22 07:34N 52°25' E 004°45'6 5.8
2015-Mar-22 06:34N 52°28' E 004°37'8 7.7
2015-Mar-22 05:33N 52°28' E 004°24'1010.4
2015-Mar-22 04:33N 52°32' E 004°08'  

Dump ship's entire track history